createdAt,value
2019-01-18T00:00:06.961Z,1005.84
2019-01-18T00:00:33.108Z,1005.84
2019-01-18T00:00:59.227Z,1005.88
2019-01-18T00:01:25.349Z,1005.85
2019-01-18T00:01:51.471Z,1005.85
2019-01-18T00:02:17.588Z,1005.88
2019-01-18T00:02:43.706Z,1005.86
2019-01-18T00:03:09.826Z,1005.88
2019-01-18T00:03:35.941Z,1005.9
2019-01-18T00:04:02.063Z,1005.86
2019-01-18T00:04:28.186Z,1005.83
2019-01-18T00:04:54.305Z,1005.89
2019-01-18T00:05:20.422Z,1005.87
2019-01-18T00:05:46.539Z,1005.91
2019-01-18T00:06:12.658Z,1005.86
2019-01-18T00:06:38.780Z,1005.89
2019-01-18T00:07:04.900Z,1005.9
2019-01-18T00:07:31.018Z,1005.92
2019-01-18T00:07:57.135Z,1005.95
2019-01-18T00:08:23.255Z,1005.95
2019-01-18T00:08:49.386Z,1005.95
2019-01-18T00:09:15.510Z,1005.97
2019-01-18T00:09:41.658Z,1005.95
2019-01-18T00:10:07.778Z,1005.91
2019-01-18T00:10:33.895Z,1005.99
2019-01-18T00:11:00.014Z,1006
2019-01-18T00:11:26.133Z,1006
2019-01-18T00:11:52.289Z,1006.03
2019-01-18T00:12:18.412Z,1006.06
2019-01-18T00:12:44.564Z,1006.05
2019-01-18T00:13:10.684Z,1006.03
2019-01-18T00:13:36.801Z,1006.1
2019-01-18T00:14:02.921Z,1006.08
2019-01-18T00:14:29.072Z,1006.07
2019-01-18T00:14:55.187Z,1006.09
2019-01-18T00:15:21.319Z,1006.08
2019-01-18T00:15:47.437Z,1006.09
2019-01-18T00:16:13.589Z,1006.07
2019-01-18T00:16:39.707Z,1006.12
2019-01-18T00:17:05.825Z,1006.09
2019-01-18T00:17:31.975Z,1006.11
2019-01-18T00:17:58.095Z,1006.13
2019-01-18T00:18:24.213Z,1006.11
2019-01-18T00:18:50.333Z,1006.13
2019-01-18T00:19:16.450Z,1006.12
2019-01-18T00:19:42.568Z,1006.13
2019-01-18T00:20:08.686Z,1006.16
2019-01-18T00:20:34.806Z,1006.19
2019-01-18T00:21:00.926Z,1006.17
2019-01-18T00:21:27.043Z,1006.18
2019-01-18T00:21:53.164Z,1006.11
2019-01-18T00:22:19.280Z,1006.18
2019-01-18T00:22:45.399Z,1006.24
2019-01-18T00:23:11.522Z,1006.22
2019-01-18T00:23:37.638Z,1006.24
2019-01-18T00:24:03.755Z,1006.26
2019-01-18T00:24:29.874Z,1006.27
2019-01-18T00:24:55.991Z,1006.29
2019-01-18T00:25:22.111Z,1006.36
2019-01-18T00:25:48.262Z,1006.36
2019-01-18T00:26:14.439Z,1006.36
2019-01-18T00:26:40.556Z,1006.34
2019-01-18T00:27:06.674Z,1006.38
2019-01-18T00:27:32.828Z,1006.39
2019-01-18T00:27:58.976Z,1006.38
2019-01-18T00:28:25.095Z,1006.38
2019-01-18T00:28:51.214Z,1006.43
2019-01-18T00:29:17.333Z,1006.38
2019-01-18T00:29:44.444Z,1006.46
2019-01-18T00:30:10.588Z,1006.42
2019-01-18T00:30:36.706Z,1006.4
2019-01-18T00:31:02.822Z,1006.43
2019-01-18T00:31:28.968Z,1006.42
2019-01-18T00:31:55.089Z,1006.48
2019-01-18T00:32:21.240Z,1006.44
2019-01-18T00:32:47.363Z,1006.37
2019-01-18T00:33:13.479Z,1006.43
2019-01-18T00:33:39.596Z,1006.45
2019-01-18T00:34:05.716Z,1006.45
2019-01-18T00:34:31.837Z,1006.42
2019-01-18T00:34:57.955Z,1006.44
2019-01-18T00:35:24.079Z,1006.44
2019-01-18T00:35:50.195Z,1006.44
2019-01-18T00:36:16.312Z,1006.5
2019-01-18T00:36:42.432Z,1006.48
2019-01-18T00:37:08.551Z,1006.51
2019-01-18T00:37:34.703Z,1006.5
2019-01-18T00:38:00.821Z,1006.51
2019-01-18T00:38:26.942Z,1006.52
2019-01-18T00:38:53.060Z,1006.52
2019-01-18T00:39:19.178Z,1006.52
2019-01-18T00:39:45.297Z,1006.52
2019-01-18T00:40:11.415Z,1006.55
2019-01-18T00:40:37.566Z,1006.54
2019-01-18T00:41:03.686Z,1006.54
2019-01-18T00:41:29.807Z,1006.53
2019-01-18T00:41:55.922Z,1006.52
2019-01-18T00:42:22.039Z,1006.54
2019-01-18T00:42:48.158Z,1006.57
2019-01-18T00:43:14.275Z,1006.53
2019-01-18T00:43:40.394Z,1006.6
2019-01-18T00:44:06.516Z,1006.63
2019-01-18T00:44:32.634Z,1006.58
2019-01-18T00:44:58.753Z,1006.61
2019-01-18T00:45:24.870Z,1006.58
2019-01-18T00:45:51.025Z,1006.62
2019-01-18T00:46:17.143Z,1006.65
2019-01-18T00:46:43.263Z,1006.66
2019-01-18T00:47:09.381Z,1006.69
2019-01-18T00:47:35.531Z,1006.64
2019-01-18T00:48:01.653Z,1006.7
2019-01-18T00:48:27.804Z,1006.72
2019-01-18T00:48:53.922Z,1006.69
2019-01-18T00:49:20.070Z,1006.72
2019-01-18T00:49:46.186Z,1006.74
2019-01-18T00:50:12.334Z,1006.69
2019-01-18T00:50:38.455Z,1006.68
2019-01-18T00:51:04.579Z,1006.73
2019-01-18T00:51:30.757Z,1006.72
2019-01-18T00:51:56.877Z,1006.73
2019-01-18T00:52:22.999Z,1006.7
2019-01-18T00:52:49.154Z,1006.74
2019-01-18T00:53:15.266Z,1006.74
2019-01-18T00:53:41.383Z,1006.81
2019-01-18T00:54:07.530Z,1006.79
2019-01-18T00:54:33.653Z,1006.79
2019-01-18T00:54:59.772Z,1006.8
2019-01-18T00:55:25.887Z,1006.8
2019-01-18T00:55:52.008Z,1006.8
2019-01-18T00:56:18.126Z,1006.82
2019-01-18T00:56:44.244Z,1006.86
2019-01-18T00:57:10.363Z,1006.82
2019-01-18T00:57:36.484Z,1006.79
2019-01-18T00:58:02.599Z,1006.79
2019-01-18T00:58:28.755Z,1006.84
2019-01-18T00:58:54.869Z,1006.81
2019-01-18T00:59:20.988Z,1006.86
2019-01-18T00:59:48.096Z,1006.79
2019-01-18T01:00:14.243Z,1006.8
2019-01-18T01:00:40.362Z,1006.81
2019-01-18T01:01:06.481Z,1006.82
2019-01-18T01:01:32.598Z,1006.84
2019-01-18T01:01:58.717Z,1006.85
2019-01-18T01:02:24.838Z,1006.82
2019-01-18T01:02:50.956Z,1006.82
2019-01-18T01:03:17.074Z,1006.85
2019-01-18T01:03:43.196Z,1006.88
2019-01-18T01:04:09.313Z,1006.85
2019-01-18T01:04:35.491Z,1006.85
2019-01-18T01:05:01.608Z,1006.87
2019-01-18T01:05:27.728Z,1006.87
2019-01-18T01:05:53.848Z,1006.88
2019-01-18T01:06:19.972Z,1006.93
2019-01-18T01:06:46.084Z,1006.9
2019-01-18T01:07:12.207Z,1006.95
2019-01-18T01:07:38.324Z,1006.92
2019-01-18T01:08:04.474Z,1006.93
2019-01-18T01:08:30.592Z,1006.96
2019-01-18T01:08:56.714Z,1007.01
2019-01-18T01:09:22.833Z,1006.98
2019-01-18T01:09:48.953Z,1007.03
2019-01-18T01:10:15.102Z,1007.05
2019-01-18T01:10:41.252Z,1007.06
2019-01-18T01:11:07.372Z,1007.08
2019-01-18T01:11:33.492Z,1007.06
2019-01-18T01:11:59.612Z,1007.06
2019-01-18T01:12:25.730Z,1007.05
2019-01-18T01:12:51.847Z,1007.12
2019-01-18T01:13:17.964Z,1007.12
2019-01-18T01:13:44.083Z,1007.09
2019-01-18T01:14:10.207Z,1007.1
2019-01-18T01:14:36.326Z,1007.14
2019-01-18T01:15:02.478Z,1007.14
2019-01-18T01:15:28.593Z,1007.1
2019-01-18T01:15:54.712Z,1007.17
2019-01-18T01:16:20.832Z,1007.22
2019-01-18T01:16:46.984Z,1007.2
2019-01-18T01:17:13.102Z,1007.22
2019-01-18T01:17:39.213Z,1007.21
2019-01-18T01:18:05.339Z,1007.27
2019-01-18T01:18:31.453Z,1007.28
2019-01-18T01:18:57.570Z,1007.28
2019-01-18T01:19:23.688Z,1007.33
2019-01-18T01:19:49.812Z,1007.27
2019-01-18T01:20:15.957Z,1007.32
2019-01-18T01:20:42.076Z,1007.32
2019-01-18T01:21:08.224Z,1007.33
2019-01-18T01:21:34.343Z,1007.32
2019-01-18T01:22:00.463Z,1007.33
2019-01-18T01:22:26.578Z,1007.35
2019-01-18T01:22:52.698Z,1007.39
2019-01-18T01:23:18.816Z,1007.37
2019-01-18T01:23:44.937Z,1007.38
2019-01-18T01:24:11.056Z,1007.4
2019-01-18T01:24:37.177Z,1007.38
2019-01-18T01:25:03.294Z,1007.43
2019-01-18T01:25:29.444Z,1007.4
2019-01-18T01:25:55.597Z,1007.43
2019-01-18T01:26:21.713Z,1007.5
2019-01-18T01:26:47.833Z,1007.49
2019-01-18T01:27:13.951Z,1007.48
2019-01-18T01:27:40.069Z,1007.5
2019-01-18T01:28:06.187Z,1007.46
2019-01-18T01:28:32.338Z,1007.56
2019-01-18T01:28:58.455Z,1007.55
2019-01-18T01:29:24.574Z,1007.58
2019-01-18T01:29:50.723Z,1007.57
2019-01-18T01:30:16.845Z,1007.59
2019-01-18T01:30:42.963Z,1007.62
2019-01-18T01:31:09.082Z,1007.63
2019-01-18T01:31:35.230Z,1007.66
2019-01-18T01:32:01.349Z,1007.66
2019-01-18T01:32:27.466Z,1007.65
2019-01-18T01:32:53.585Z,1007.67
2019-01-18T01:33:19.705Z,1007.7
2019-01-18T01:33:45.857Z,1007.73
2019-01-18T01:34:11.974Z,1007.69
2019-01-18T01:34:38.092Z,1007.75
2019-01-18T01:35:04.214Z,1007.75
2019-01-18T01:35:30.331Z,1007.79
2019-01-18T01:35:56.481Z,1007.78
2019-01-18T01:36:22.596Z,1007.78
2019-01-18T01:36:48.742Z,1007.77
2019-01-18T01:37:14.860Z,1007.8
2019-01-18T01:37:40.980Z,1007.83
2019-01-18T01:38:07.100Z,1007.79
2019-01-18T01:38:33.221Z,1007.81
2019-01-18T01:38:59.338Z,1007.84
2019-01-18T01:39:25.494Z,1007.82
2019-01-18T01:39:51.665Z,1007.83
2019-01-18T01:40:17.784Z,1007.9
2019-01-18T01:40:43.901Z,1007.86
2019-01-18T01:41:10.024Z,1007.9
2019-01-18T01:41:36.177Z,1007.88
2019-01-18T01:42:02.298Z,1007.89
2019-01-18T01:42:28.416Z,1007.92
2019-01-18T01:42:54.534Z,1007.97
2019-01-18T01:43:20.687Z,1007.95
2019-01-18T01:43:46.840Z,1007.94
2019-01-18T01:44:12.957Z,1007.95
2019-01-18T01:44:39.078Z,1007.99
2019-01-18T01:45:05.198Z,1008
2019-01-18T01:45:31.317Z,1007.98
2019-01-18T01:45:57.439Z,1008.01
2019-01-18T01:46:23.560Z,1008
2019-01-18T01:46:49.679Z,1008.04
2019-01-18T01:47:15.798Z,1008.01
2019-01-18T01:47:41.918Z,1008.03
2019-01-18T01:48:08.101Z,1008.05
2019-01-18T01:48:34.217Z,1008.06
2019-01-18T01:49:00.336Z,1008.08
2019-01-18T01:49:26.456Z,1008.05
2019-01-18T01:49:52.575Z,1008.11
2019-01-18T01:50:18.694Z,1008.1
2019-01-18T01:50:44.812Z,1008.11
2019-01-18T01:51:10.932Z,1008.09
2019-01-18T01:51:37.052Z,1008.12
2019-01-18T01:52:03.175Z,1008.11
2019-01-18T01:52:29.290Z,1008.08
2019-01-18T01:52:55.410Z,1008.09
2019-01-18T01:53:21.561Z,1008.13
2019-01-18T01:53:47.681Z,1008.2
2019-01-18T01:54:13.800Z,1008.19
2019-01-18T01:54:39.919Z,1008.17
2019-01-18T01:55:06.036Z,1008.19
2019-01-18T01:55:32.153Z,1008.2
2019-01-18T01:55:58.271Z,1008.14
2019-01-18T01:56:24.391Z,1008.19
2019-01-18T01:56:50.510Z,1008.2
2019-01-18T01:57:16.628Z,1008.22
2019-01-18T01:57:42.747Z,1008.26
2019-01-18T01:58:08.864Z,1008.25
2019-01-18T01:58:34.984Z,1008.22
2019-01-18T01:59:01.109Z,1008.28
2019-01-18T01:59:27.223Z,1008.24
2019-01-18T01:59:54.333Z,1008.27
2019-01-18T02:00:20.452Z,1008.26
2019-01-18T02:00:46.571Z,1008.28
2019-01-18T02:01:12.690Z,1008.27
2019-01-18T02:01:38.836Z,1008.3
2019-01-18T02:02:04.958Z,1008.28
2019-01-18T02:02:31.073Z,1008.27
2019-01-18T02:02:57.224Z,1008.32
2019-01-18T02:03:23.344Z,1008.28
2019-01-18T02:03:49.462Z,1008.33
2019-01-18T02:04:15.579Z,1008.33
2019-01-18T02:04:41.698Z,1008.33
2019-01-18T02:05:07.817Z,1008.3
2019-01-18T02:05:33.969Z,1008.33
2019-01-18T02:06:00.087Z,1008.33
2019-01-18T02:06:26.207Z,1008.34
2019-01-18T02:06:52.325Z,1008.29
2019-01-18T02:07:18.445Z,1008.34
2019-01-18T02:07:44.594Z,1008.31
2019-01-18T02:08:10.715Z,1008.35
2019-01-18T02:08:36.832Z,1008.37
2019-01-18T02:09:02.949Z,1008.35
2019-01-18T02:09:29.072Z,1008.39
2019-01-18T02:09:55.189Z,1008.37
2019-01-18T02:10:21.306Z,1008.41
2019-01-18T02:10:47.428Z,1008.39
2019-01-18T02:11:13.546Z,1008.43
2019-01-18T02:11:39.664Z,1008.45
2019-01-18T02:12:05.786Z,1008.45
2019-01-18T02:12:31.904Z,1008.45
2019-01-18T02:12:58.081Z,1008.46
2019-01-18T02:13:24.232Z,1008.51
2019-01-18T02:13:50.352Z,1008.51
2019-01-18T02:14:16.503Z,1008.52
2019-01-18T02:14:42.622Z,1008.5
2019-01-18T02:15:08.742Z,1008.52
2019-01-18T02:15:34.859Z,1008.54
2019-01-18T02:16:00.979Z,1008.52
2019-01-18T02:16:27.099Z,1008.57
2019-01-18T02:16:53.216Z,1008.57
2019-01-18T02:17:19.338Z,1008.57
2019-01-18T02:17:45.516Z,1008.58
2019-01-18T02:18:11.635Z,1008.6
2019-01-18T02:18:37.756Z,1008.6
2019-01-18T02:19:03.907Z,1008.63
2019-01-18T02:19:30.021Z,1008.65
2019-01-18T02:19:56.141Z,1008.67
2019-01-18T02:20:22.262Z,1008.7
2019-01-18T02:20:48.390Z,1008.63
2019-01-18T02:21:14.501Z,1008.69
2019-01-18T02:21:40.620Z,1008.71
2019-01-18T02:22:06.740Z,1008.73
2019-01-18T02:22:32.858Z,1008.71
2019-01-18T02:22:58.978Z,1008.74
2019-01-18T02:23:25.098Z,1008.74
2019-01-18T02:23:51.211Z,1008.74
2019-01-18T02:24:17.343Z,1008.78
2019-01-18T02:24:43.445Z,1008.84
2019-01-18T02:25:09.555Z,1008.8
2019-01-18T02:25:35.712Z,1008.83
2019-01-18T02:26:01.845Z,1008.82
2019-01-18T02:26:27.947Z,1008.84
2019-01-18T02:26:54.047Z,1008.85
2019-01-18T02:27:20.154Z,1008.86
2019-01-18T02:27:46.285Z,1008.91
2019-01-18T02:28:12.422Z,1008.85
2019-01-18T02:28:38.524Z,1008.89
2019-01-18T02:29:04.660Z,1008.9
2019-01-18T02:29:30.786Z,1008.92
2019-01-18T02:29:57.879Z,1008.9
2019-01-18T02:30:24.018Z,1008.94
2019-01-18T02:30:50.152Z,1008.95
2019-01-18T02:31:16.279Z,1008.94
2019-01-18T02:31:42.398Z,1008.9
2019-01-18T02:32:08.507Z,1008.96
2019-01-18T02:32:34.655Z,1008.98
2019-01-18T02:33:00.764Z,1008.96
2019-01-18T02:33:26.894Z,1009.01
2019-01-18T02:33:53.003Z,1009
2019-01-18T02:34:19.132Z,1008.95
2019-01-18T02:34:45.254Z,1008.98
2019-01-18T02:35:11.390Z,1008.97
2019-01-18T02:35:37.486Z,1008.98
2019-01-18T02:36:03.628Z,1009
2019-01-18T02:36:29.746Z,1009.02
2019-01-18T02:36:55.889Z,1009.04
2019-01-18T02:37:21.991Z,1009
2019-01-18T02:37:48.098Z,1009.03
2019-01-18T02:38:14.223Z,1009.02
2019-01-18T02:38:40.352Z,1009
2019-01-18T02:39:06.485Z,1009.01
2019-01-18T02:39:32.591Z,1009.01
2019-01-18T02:39:58.720Z,1009.03
2019-01-18T02:40:24.853Z,1009
2019-01-18T02:40:50.967Z,1009.01
2019-01-18T02:41:17.074Z,1009.03
2019-01-18T02:41:43.175Z,1009.04
2019-01-18T02:42:09.307Z,1009.04
2019-01-18T02:42:35.419Z,1009.04
2019-01-18T02:43:01.549Z,1009.03
2019-01-18T02:43:27.655Z,1009.04
2019-01-18T02:43:53.760Z,1009.03
2019-01-18T02:44:19.884Z,1009.03
2019-01-18T02:44:46.017Z,1009.03
2019-01-18T02:45:12.148Z,1009.08
2019-01-18T02:45:38.312Z,1009.03
2019-01-18T02:46:04.418Z,1009.04
2019-01-18T02:46:30.583Z,1009.06
2019-01-18T02:46:56.691Z,1009.03
2019-01-18T02:47:22.790Z,1009.04
2019-01-18T02:47:48.898Z,1009.07
2019-01-18T02:48:15.056Z,1009.06
2019-01-18T02:48:41.159Z,1009
2019-01-18T02:49:07.293Z,1009.05
2019-01-18T02:49:33.400Z,1009
2019-01-18T02:49:59.502Z,1009.07
2019-01-18T02:50:25.609Z,1009.05
2019-01-18T02:50:51.722Z,1009.06
2019-01-18T02:51:17.853Z,1009.07
2019-01-18T02:51:43.949Z,1009.11
2019-01-18T02:52:10.053Z,1009.08
2019-01-18T02:52:36.209Z,1009.11
2019-01-18T02:53:02.312Z,1009.12
2019-01-18T02:53:28.445Z,1009.11
2019-01-18T02:53:54.573Z,1009.11
2019-01-18T02:54:20.674Z,1009.09
2019-01-18T02:54:46.780Z,1009.1
2019-01-18T02:55:12.916Z,1009.08
2019-01-18T02:55:40.060Z,1009.09
2019-01-18T02:56:06.215Z,1009.06
2019-01-18T02:56:32.331Z,1009.04
2019-01-18T02:56:58.465Z,1009.05
2019-01-18T02:57:24.568Z,1009.03
2019-01-18T02:57:50.672Z,1008.97
2019-01-18T02:58:16.770Z,1009.01
2019-01-18T02:58:42.877Z,1008.99
2019-01-18T02:59:09.013Z,1008.99
2019-01-18T02:59:35.115Z,1008.97
2019-01-18T03:00:04.845Z,1009
2019-01-18T03:00:28.341Z,1008.99
2019-01-18T03:00:54.470Z,1008.99
2019-01-18T03:01:20.572Z,1009.02
2019-01-18T03:01:46.676Z,1009.02
2019-01-18T03:02:12.780Z,1009.04
2019-01-18T03:02:38.889Z,1009.09
2019-01-18T03:03:05.010Z,1009.12
2019-01-18T03:03:31.142Z,1009.14
2019-01-18T03:03:57.243Z,1009.12
2019-01-18T03:04:23.353Z,1009.12
2019-01-18T03:04:49.451Z,1009.12
2019-01-18T03:05:15.589Z,1009.15
2019-01-18T03:05:41.755Z,1009.19
2019-01-18T03:06:07.891Z,1009.16
2019-01-18T03:06:33.992Z,1009.19
2019-01-18T03:07:00.119Z,1009.17
2019-01-18T03:07:26.248Z,1009.15
2019-01-18T03:07:52.364Z,1009.16
2019-01-18T03:08:18.495Z,1009.2
2019-01-18T03:08:44.597Z,1009.18
2019-01-18T03:09:10.731Z,1009.18
2019-01-18T03:09:36.833Z,1009.17
2019-01-18T03:10:02.941Z,1009.16
2019-01-18T03:10:29.062Z,1009.19
2019-01-18T03:10:55.164Z,1009.17
2019-01-18T03:11:21.270Z,1009.18
2019-01-18T03:11:47.369Z,1009.2
2019-01-18T03:12:13.480Z,1009.19
2019-01-18T03:12:39.581Z,1009.18
2019-01-18T03:13:05.685Z,1009.17
2019-01-18T03:13:31.795Z,1009.18
2019-01-18T03:13:57.930Z,1009.21
2019-01-18T03:14:24.032Z,1009.21
2019-01-18T03:14:50.142Z,1009.19
2019-01-18T03:15:16.281Z,1009.24
2019-01-18T03:15:42.388Z,1009.24
2019-01-18T03:16:08.520Z,1009.19
2019-01-18T03:16:34.697Z,1009.23
2019-01-18T03:17:00.803Z,1009.16
2019-01-18T03:17:26.903Z,1009.23
2019-01-18T03:17:53.032Z,1009.26
2019-01-18T03:18:19.136Z,1009.22
2019-01-18T03:18:45.238Z,1009.22
2019-01-18T03:19:11.379Z,1009.24
2019-01-18T03:19:37.472Z,1009.28
2019-01-18T03:20:03.576Z,1009.3
2019-01-18T03:20:29.710Z,1009.31
2019-01-18T03:20:55.838Z,1009.33
2019-01-18T03:21:21.974Z,1009.34
2019-01-18T03:21:48.069Z,1009.34
2019-01-18T03:22:14.169Z,1009.32
2019-01-18T03:22:40.336Z,1009.32
2019-01-18T03:23:06.414Z,1009.32
2019-01-18T03:23:32.522Z,1009.34
2019-01-18T03:23:58.653Z,1009.34
2019-01-18T03:24:24.785Z,1009.36
2019-01-18T03:24:50.946Z,1009.37
2019-01-18T03:25:17.051Z,1009.38
2019-01-18T03:25:43.178Z,1009.39
2019-01-18T03:26:09.282Z,1009.39
2019-01-18T03:26:35.399Z,1009.38
2019-01-18T03:27:01.495Z,1009.38
2019-01-18T03:27:27.601Z,1009.45
2019-01-18T03:27:53.724Z,1009.43
2019-01-18T03:28:19.875Z,1009.4
2019-01-18T03:28:46.013Z,1009.43
2019-01-18T03:29:12.120Z,1009.41
2019-01-18T03:29:38.219Z,1009.44
2019-01-18T03:30:04.327Z,1009.47
2019-01-18T03:30:32.022Z,1009.48
2019-01-18T03:30:58.187Z,1009.48
2019-01-18T03:31:24.351Z,1009.49
2019-01-18T03:31:50.551Z,1009.51
2019-01-18T03:32:16.717Z,1009.49
2019-01-18T03:32:42.897Z,1009.51
2019-01-18T03:33:09.009Z,1009.55
2019-01-18T03:33:35.108Z,1009.52
2019-01-18T03:34:01.210Z,1009.59
2019-01-18T03:34:27.346Z,1009.6
2019-01-18T03:34:53.452Z,1009.57
2019-01-18T03:35:19.556Z,1009.58
2019-01-18T03:35:45.662Z,1009.6
2019-01-18T03:36:11.771Z,1009.62
2019-01-18T03:36:37.872Z,1009.61
2019-01-18T03:37:03.976Z,1009.66
2019-01-18T03:37:30.078Z,1009.64
2019-01-18T03:37:56.183Z,1009.69
2019-01-18T03:38:22.287Z,1009.68
2019-01-18T03:38:48.421Z,1009.71
2019-01-18T03:39:14.520Z,1009.72
2019-01-18T03:39:40.630Z,1009.74
2019-01-18T03:40:06.752Z,1009.76
2019-01-18T03:40:32.854Z,1009.72
2019-01-18T03:40:58.957Z,1009.79
2019-01-18T03:41:25.087Z,1009.77
2019-01-18T03:41:51.226Z,1009.77
2019-01-18T03:42:17.328Z,1009.75
2019-01-18T03:42:43.466Z,1009.78
2019-01-18T03:43:09.571Z,1009.77
2019-01-18T03:43:35.671Z,1009.79
2019-01-18T03:44:01.778Z,1009.77
2019-01-18T03:44:27.876Z,1009.79
2019-01-18T03:44:53.984Z,1009.81
2019-01-18T03:45:20.088Z,1009.74
2019-01-18T03:45:46.215Z,1009.76
2019-01-18T03:46:12.316Z,1009.79
2019-01-18T03:46:38.477Z,1009.82
2019-01-18T03:47:04.603Z,1009.81
2019-01-18T03:47:30.733Z,1009.85
2019-01-18T03:47:56.839Z,1009.83
2019-01-18T03:48:22.940Z,1009.89
2019-01-18T03:48:49.043Z,1009.88
2019-01-18T03:49:15.179Z,1009.87
2019-01-18T03:49:41.306Z,1009.9
2019-01-18T03:50:07.409Z,1009.89
2019-01-18T03:50:33.537Z,1009.9
2019-01-18T03:50:59.645Z,1009.9
2019-01-18T03:51:25.755Z,1009.9
2019-01-18T03:51:51.851Z,1009.9
2019-01-18T03:52:17.955Z,1009.89
2019-01-18T03:52:44.060Z,1009.94
2019-01-18T03:53:10.159Z,1009.94
2019-01-18T03:53:36.293Z,1009.93
2019-01-18T03:54:02.422Z,1009.95
2019-01-18T03:54:28.522Z,1009.95
2019-01-18T03:54:54.630Z,1009.96
2019-01-18T03:55:20.740Z,1009.98
2019-01-18T03:55:46.870Z,1009.96
2019-01-18T03:56:12.974Z,1009.97
2019-01-18T03:56:39.110Z,1009.97
2019-01-18T03:57:05.243Z,1009.98
2019-01-18T03:57:31.366Z,1009.99
2019-01-18T03:57:57.505Z,1010.03
2019-01-18T03:58:23.634Z,1010.01
2019-01-18T03:58:49.736Z,1009.97
2019-01-18T03:59:15.837Z,1009.99
2019-01-18T03:59:41.946Z,1010.01
2019-01-18T04:00:08.044Z,1010.05
2019-01-18T04:00:36.134Z,1010.05
2019-01-18T04:01:02.257Z,1010.02
2019-01-18T04:01:28.358Z,1010.02
2019-01-18T04:01:54.471Z,1010.05
2019-01-18T04:02:20.567Z,1010.05
2019-01-18T04:02:46.726Z,1010.03
2019-01-18T04:03:12.844Z,1010.01
2019-01-18T04:03:38.974Z,1010.04
2019-01-18T04:04:05.098Z,1010.03
2019-01-18T04:04:31.233Z,1010.06
2019-01-18T04:04:57.339Z,1010.02
2019-01-18T04:05:23.444Z,1010.01
2019-01-18T04:05:49.541Z,1010.04
2019-01-18T04:06:15.677Z,1010.03
2019-01-18T04:06:41.755Z,1010.01
2019-01-18T04:07:07.880Z,1010.02
2019-01-18T04:07:33.982Z,1010.01
2019-01-18T04:08:00.118Z,1010.01
2019-01-18T04:08:26.226Z,1010.01
2019-01-18T04:08:52.359Z,1010.01
2019-01-18T04:09:18.493Z,1010.04
2019-01-18T04:09:44.618Z,1010.03
2019-01-18T04:10:10.721Z,1010.05
2019-01-18T04:10:36.831Z,1010.04
2019-01-18T04:11:02.959Z,1010.05
2019-01-18T04:11:29.063Z,1010.07
2019-01-18T04:11:55.195Z,1010.06
2019-01-18T04:12:21.304Z,1010.05
2019-01-18T04:12:47.403Z,1010.02
2019-01-18T04:13:13.508Z,1010.05
2019-01-18T04:13:39.640Z,1010.08
2019-01-18T04:14:05.749Z,1010.03
2019-01-18T04:14:31.883Z,1010.08
2019-01-18T04:14:57.979Z,1010.11
2019-01-18T04:15:24.086Z,1010.08
2019-01-18T04:15:50.201Z,1010.07
2019-01-18T04:16:16.335Z,1010.11
2019-01-18T04:16:42.490Z,1010.09
2019-01-18T04:17:08.625Z,1010.09
2019-01-18T04:17:34.728Z,1010.11
2019-01-18T04:18:00.830Z,1010.09
2019-01-18T04:18:26.936Z,1010.1
2019-01-18T04:18:53.038Z,1010.12
2019-01-18T04:19:19.146Z,1010.15
2019-01-18T04:19:45.272Z,1010.09
2019-01-18T04:20:11.377Z,1010.14
2019-01-18T04:20:37.477Z,1010.12
2019-01-18T04:21:03.638Z,1010.12
2019-01-18T04:21:29.745Z,1010.1
2019-01-18T04:21:55.850Z,1010.08
2019-01-18T04:22:21.979Z,1010.11
2019-01-18T04:22:48.058Z,1010.09
2019-01-18T04:23:14.181Z,1010.07
2019-01-18T04:23:40.290Z,1010.09
2019-01-18T04:24:06.389Z,1010.11
2019-01-18T04:24:32.520Z,1010.12
2019-01-18T04:24:58.623Z,1010.12
2019-01-18T04:25:24.729Z,1010.12
2019-01-18T04:25:50.830Z,1010.11
2019-01-18T04:26:16.951Z,1010.1
2019-01-18T04:26:43.035Z,1010.13
2019-01-18T04:27:09.138Z,1010.1
2019-01-18T04:27:35.238Z,1010.09
2019-01-18T04:28:01.369Z,1010.1
2019-01-18T04:28:27.469Z,1010.1
2019-01-18T04:28:53.601Z,1010.1
2019-01-18T04:29:19.731Z,1010.12
2019-01-18T04:29:45.839Z,1010.13
2019-01-18T04:30:11.967Z,1010.13
2019-01-18T04:30:39.109Z,1010.11
2019-01-18T04:31:05.240Z,1010.1
2019-01-18T04:31:31.340Z,1010.14
2019-01-18T04:31:57.457Z,1010.14
2019-01-18T04:32:23.553Z,1010.15
2019-01-18T04:32:49.703Z,1010.11
2019-01-18T04:33:15.794Z,1010.1
2019-01-18T04:33:41.900Z,1010.15
2019-01-18T04:34:07.998Z,1010.14
2019-01-18T04:34:34.095Z,1010.15
2019-01-18T04:35:00.308Z,1010.17
2019-01-18T04:35:26.416Z,1010.19
2019-01-18T04:35:52.518Z,1010.14
2019-01-18T04:36:18.629Z,1010.17
2019-01-18T04:36:44.731Z,1010.15
2019-01-18T04:37:10.837Z,1010.11
2019-01-18T04:37:36.971Z,1010.14
2019-01-18T04:38:03.074Z,1010.19
2019-01-18T04:38:29.206Z,1010.2
2019-01-18T04:38:55.313Z,1010.16
2019-01-18T04:39:21.450Z,1010.16
2019-01-18T04:39:47.584Z,1010.18
2019-01-18T04:40:13.690Z,1010.16
2019-01-18T04:40:39.803Z,1010.17
2019-01-18T04:41:05.922Z,1010.16
2019-01-18T04:41:32.032Z,1010.21
2019-01-18T04:41:58.129Z,1010.21
2019-01-18T04:42:24.271Z,1010.22
2019-01-18T04:42:50.373Z,1010.2
2019-01-18T04:43:16.477Z,1010.18
2019-01-18T04:43:42.579Z,1010.2
2019-01-18T04:44:08.682Z,1010.21
2019-01-18T04:44:34.790Z,1010.24
2019-01-18T04:45:00.924Z,1010.23
2019-01-18T04:45:27.097Z,1010.2
2019-01-18T04:45:53.193Z,1010.23
2019-01-18T04:46:19.304Z,1010.21
2019-01-18T04:46:45.408Z,1010.24
2019-01-18T04:47:11.533Z,1010.24
2019-01-18T04:47:37.632Z,1010.23
2019-01-18T04:48:03.742Z,1010.24
2019-01-18T04:48:29.845Z,1010.24
2019-01-18T04:48:55.980Z,1010.21
2019-01-18T04:49:22.080Z,1010.24
2019-01-18T04:49:48.184Z,1010.2
2019-01-18T04:50:14.284Z,1010.29
2019-01-18T04:50:40.413Z,1010.26
2019-01-18T04:51:06.534Z,1010.27
2019-01-18T04:51:32.692Z,1010.24
2019-01-18T04:51:58.794Z,1010.26
2019-01-18T04:52:24.932Z,1010.29
2019-01-18T04:52:51.036Z,1010.29
2019-01-18T04:53:17.141Z,1010.28
2019-01-18T04:53:43.253Z,1010.29
2019-01-18T04:54:09.351Z,1010.31
2019-01-18T04:54:35.482Z,1010.32
2019-01-18T04:55:01.596Z,1010.33
2019-01-18T04:55:27.728Z,1010.32
2019-01-18T04:55:53.827Z,1010.3
2019-01-18T04:56:19.987Z,1010.34
2019-01-18T04:56:46.109Z,1010.36
2019-01-18T04:57:12.219Z,1010.33
2019-01-18T04:57:38.347Z,1010.35
2019-01-18T04:58:04.472Z,1010.36
2019-01-18T04:58:31.565Z,1010.36
2019-01-18T04:58:57.670Z,1010.35
2019-01-18T04:59:23.805Z,1010.36
2019-01-18T04:59:49.936Z,1010.36
2019-01-18T05:00:16.072Z,1010.34
2019-01-18T05:00:42.203Z,1010.37
2019-01-18T05:01:08.295Z,1010.35
2019-01-18T05:01:34.424Z,1010.4
2019-01-18T05:02:00.533Z,1010.37
2019-01-18T05:02:26.640Z,1010.39
2019-01-18T05:02:52.738Z,1010.37
2019-01-18T05:03:18.877Z,1010.39
2019-01-18T05:03:45.012Z,1010.4
2019-01-18T05:04:11.146Z,1010.46
2019-01-18T05:04:37.274Z,1010.43
2019-01-18T05:05:03.381Z,1010.46
2019-01-18T05:05:29.488Z,1010.4
2019-01-18T05:05:55.619Z,1010.46
2019-01-18T05:06:21.776Z,1010.48
2019-01-18T05:06:47.880Z,1010.46
2019-01-18T05:07:14.011Z,1010.48
2019-01-18T05:07:40.117Z,1010.48
2019-01-18T05:08:06.220Z,1010.49
2019-01-18T05:08:32.350Z,1010.47
2019-01-18T05:08:58.459Z,1010.45
2019-01-18T05:09:24.753Z,1010.51
2019-01-18T05:09:50.804Z,1010.5
2019-01-18T05:10:16.910Z,1010.5
2019-01-18T05:10:43.012Z,1010.53
2019-01-18T05:11:09.147Z,1010.53
2019-01-18T05:11:35.279Z,1010.54
2019-01-18T05:12:01.383Z,1010.58
2019-01-18T05:12:27.490Z,1010.55
2019-01-18T05:12:53.591Z,1010.55
2019-01-18T05:13:20.490Z,1010.54
2019-01-18T05:13:46.594Z,1010.55
2019-01-18T05:14:12.745Z,1010.57
2019-01-18T05:14:38.851Z,1010.56
2019-01-18T05:15:04.984Z,1010.58
2019-01-18T05:15:31.123Z,1010.61
2019-01-18T05:15:57.257Z,1010.6
2019-01-18T05:16:23.366Z,1010.61
2019-01-18T05:16:49.464Z,1010.63
2019-01-18T05:17:15.595Z,1010.62
2019-01-18T05:17:41.701Z,1010.64